createdAt,value
2023-02-04T00:00:26.804Z,160.45
2023-02-04T00:02:54.313Z,162.30
2023-02-04T00:05:21.987Z,176.45
2023-02-04T00:07:49.400Z,169.52
2023-02-04T00:10:16.816Z,161.95
2023-02-04T00:12:44.082Z,160.70
2023-02-04T00:15:11.553Z,161.65
2023-02-04T00:17:39.559Z,173.30
2023-02-04T00:20:07.180Z,165.00
2023-02-04T00:22:34.500Z,160.93
2023-02-04T00:25:01.877Z,169.68
2023-02-04T00:27:29.461Z,165.65
2023-02-04T00:29:57.680Z,162.57
2023-02-04T00:32:25.290Z,155.77
2023-02-04T00:34:54.990Z,156.93
2023-02-04T00:37:22.496Z,165.57
2023-02-04T00:39:50.941Z,162.85
2023-02-04T00:42:18.247Z,157.75
2023-02-04T00:44:45.680Z,164.80
2023-02-04T00:47:13.035Z,163.25
2023-02-04T00:49:40.427Z,156.70
2023-02-04T00:52:07.818Z,157.70
2023-02-04T00:54:35.345Z,157.30
2023-02-04T00:57:04.098Z,161.93
2023-02-04T00:59:31.465Z,160.20
2023-02-04T01:01:58.876Z,157.38
2023-02-04T01:04:28.054Z,159.90
2023-02-04T01:06:55.448Z,162.70
2023-02-04T01:09:22.787Z,154.48
2023-02-04T01:11:52.299Z,157.63
2023-02-04T01:14:20.116Z,163.57
2023-02-04T01:16:47.725Z,165.82
2023-02-04T01:19:15.052Z,158.95
2023-02-04T01:21:42.597Z,160.00
2023-02-04T01:24:13.275Z,169.57
2023-02-04T01:27:04.075Z,157.32
2023-02-04T01:29:32.780Z,149.98
2023-02-04T01:32:00.174Z,158.82
2023-02-04T01:34:27.537Z,154.70
2023-02-04T01:36:54.801Z,154.13
2023-02-04T01:39:22.119Z,148.25
2023-02-04T01:41:49.550Z,154.48
2023-02-04T01:44:17.016Z,150.93
2023-02-04T01:46:44.435Z,149.38
2023-02-04T01:49:12.146Z,150.38
2023-02-04T01:51:39.856Z,150.65
2023-02-04T01:54:12.023Z,153.73
2023-02-04T01:56:40.874Z,146.38
2023-02-04T01:59:16.443Z,139.68
2023-02-04T02:01:49.114Z,149.82
2023-02-04T02:04:28.299Z,146.05
2023-02-04T02:06:58.944Z,150.55
2023-02-04T02:09:27.667Z,148.60
2023-02-04T02:11:55.083Z,152.82
2023-02-04T02:14:22.859Z,152.65
2023-02-04T02:16:51.220Z,151.15
2023-02-04T02:19:29.772Z,145.57
2023-02-04T02:22:05.372Z,145.18
2023-02-04T02:24:34.993Z,154.27
2023-02-04T02:27:07.321Z,143.75
2023-02-04T02:29:35.757Z,149.38
2023-02-04T02:32:03.402Z,142.00
2023-02-04T02:34:31.512Z,142.63
2023-02-04T02:37:00.516Z,153.65
2023-02-04T02:39:28.285Z,150.48
2023-02-04T02:41:57.156Z,150.23
2023-02-04T02:44:26.445Z,147.40
2023-02-04T02:46:54.928Z,145.23
2023-02-04T02:49:22.772Z,142.07
2023-02-04T02:51:50.148Z,139.40
2023-02-04T02:54:44.047Z,141.07
2023-02-04T02:57:20.574Z,145.10
2023-02-04T02:59:48.144Z,145.73
2023-02-04T03:02:22.044Z,140.02
2023-02-04T03:04:56.729Z,138.35
2023-02-04T03:07:27.492Z,143.13
2023-02-04T03:09:54.947Z,138.48
2023-02-04T03:12:22.268Z,143.85
2023-02-04T03:14:49.865Z,136.52
2023-02-04T03:17:17.580Z,145.13
2023-02-04T03:19:47.220Z,137.05
2023-02-04T03:22:15.027Z,133.82
2023-02-04T03:24:42.602Z,136.75
2023-02-04T03:27:10.543Z,143.18
2023-02-04T03:29:43.732Z,137.93
2023-02-04T03:32:11.665Z,141.90
2023-02-04T03:34:39.017Z,134.20
2023-02-04T03:37:06.392Z,137.77
2023-02-04T03:39:33.809Z,133.73
2023-02-04T03:42:01.116Z,136.52
2023-02-04T03:44:29.585Z,142.90
2023-02-04T03:46:57.047Z,139.82
2023-02-04T03:49:24.826Z,135.93
2023-02-04T03:51:52.119Z,134.43
2023-02-04T03:54:19.441Z,145.25
2023-02-04T03:56:46.984Z,145.30
2023-02-04T03:59:14.334Z,135.48
2023-02-04T04:01:41.811Z,139.07
2023-02-04T04:04:09.205Z,140.13
2023-02-04T04:06:36.493Z,134.07
2023-02-04T04:09:04.927Z,139.65
2023-02-04T04:11:32.252Z,133.18
2023-02-04T04:14:01.176Z,135.13
2023-02-04T04:16:29.042Z,123.57
2023-02-04T04:18:56.576Z,135.05
2023-02-04T04:21:27.093Z,133.88
2023-02-04T04:23:54.478Z,134.93
2023-02-04T04:26:21.736Z,133.07
2023-02-04T04:28:49.197Z,127.03
2023-02-04T04:31:16.589Z,123.68
2023-02-04T04:33:43.948Z,132.70
2023-02-04T04:36:12.112Z,132.30
2023-02-04T04:38:39.486Z,121.03
2023-02-04T04:41:06.836Z,122.05
2023-02-04T04:43:34.166Z,130.35
2023-02-04T04:46:01.491Z,127.57
2023-02-04T04:48:28.846Z,130.30
2023-02-04T04:50:56.261Z,140.95
2023-02-04T04:53:23.720Z,135.63
2023-02-04T04:55:51.036Z,129.63
2023-02-04T04:58:18.396Z,122.15
2023-02-04T05:00:45.750Z,125.57
2023-02-04T05:03:13.093Z,126.65
2023-02-04T05:05:41.410Z,130.20
2023-02-04T05:08:13.878Z,123.28
2023-02-04T05:10:41.740Z,119.03
2023-02-04T05:13:09.491Z,124.38
2023-02-04T05:15:36.908Z,120.28
2023-02-04T05:18:04.569Z,126.15
2023-02-04T05:20:32.328Z,117.15
2023-02-04T05:23:01.285Z,122.53
2023-02-04T05:25:29.068Z,118.65
2023-02-04T05:27:56.489Z,123.05
2023-02-04T05:30:23.889Z,124.05
2023-02-04T05:32:51.214Z,119.00
2023-02-04T05:35:18.653Z,119.60
2023-02-04T05:37:46.040Z,129.23
2023-02-04T05:40:14.025Z,119.72
2023-02-04T05:42:42.224Z,125.93
2023-02-04T05:45:15.027Z,120.57
2023-02-04T05:47:42.644Z,123.82
2023-02-04T05:50:10.921Z,118.90
2023-02-04T05:52:38.875Z,124.00
2023-02-04T05:55:07.068Z,117.30
2023-02-04T05:57:34.373Z,119.90
2023-02-04T06:00:01.739Z,124.03
2023-02-04T06:02:39.498Z,114.65
2023-02-04T06:05:07.116Z,118.20
2023-02-04T06:07:34.544Z,120.32
2023-02-04T06:10:01.924Z,122.00
2023-02-04T06:12:29.266Z,119.35
2023-02-04T06:14:56.737Z,122.25
2023-02-04T06:17:24.048Z,122.97
2023-02-04T06:19:51.413Z,120.10
2023-02-04T06:22:18.781Z,125.88
2023-02-04T06:24:47.465Z,122.20
2023-02-04T06:27:23.239Z,124.15
2023-02-04T06:29:53.174Z,116.05
2023-02-04T06:32:21.685Z,113.78
2023-02-04T06:34:49.619Z,108.72
2023-02-04T06:37:17.259Z,116.80
2023-02-04T06:39:44.658Z,114.85
2023-02-04T06:42:13.417Z,108.90
2023-02-04T06:44:40.861Z,111.22
2023-02-04T06:47:08.285Z,114.65
2023-02-04T06:49:35.650Z,115.22
2023-02-04T06:52:03.041Z,116.95
2023-02-04T06:54:30.336Z,121.00
2023-02-04T06:57:03.781Z,121.90
2023-02-04T06:59:33.105Z,125.45
2023-02-04T07:02:00.463Z,120.05
2023-02-04T07:04:27.823Z,122.97
2023-02-04T07:06:57.647Z,125.38
2023-02-04T07:09:25.045Z,121.88
2023-02-04T07:11:52.384Z,118.80
2023-02-04T07:14:20.136Z,125.07
2023-02-04T07:16:47.591Z,123.68
2023-02-04T07:19:15.165Z,116.78
2023-02-04T07:21:42.516Z,121.05
2023-02-04T07:24:09.876Z,125.25
2023-02-04T07:26:37.190Z,120.45
2023-02-04T07:29:05.815Z,132.68
2023-02-04T07:31:34.469Z,124.05
2023-02-04T07:34:01.896Z,119.10
2023-02-04T07:36:29.285Z,121.88
2023-02-04T07:38:56.553Z,122.97
2023-02-04T07:41:24.000Z,123.50
2023-02-04T07:43:51.240Z,121.65
2023-02-04T07:46:18.591Z,123.03
2023-02-04T07:48:45.952Z,122.18
2023-02-04T07:51:13.367Z,124.78
2023-02-04T07:53:40.728Z,118.05
2023-02-04T07:56:08.097Z,121.15
2023-02-04T07:58:35.437Z,124.88
2023-02-04T08:01:02.993Z,125.78
2023-02-04T08:03:30.264Z,123.78
2023-02-04T08:05:57.679Z,126.35
2023-02-04T08:08:25.053Z,121.88
2023-02-04T08:10:52.441Z,128.48
2023-02-04T08:13:19.785Z,125.88
2023-02-04T08:15:47.222Z,123.20
2023-02-04T08:18:14.586Z,122.53
2023-02-04T08:20:41.929Z,125.13
2023-02-04T08:23:10.392Z,130.95
2023-02-04T08:25:37.742Z,125.03
2023-02-04T08:28:05.149Z,120.57
2023-02-04T08:30:32.936Z,121.22
2023-02-04T08:33:00.446Z,114.47
2023-02-04T08:35:27.852Z,122.18
2023-02-04T08:37:55.146Z,119.47
2023-02-04T08:40:22.637Z,114.18
2023-02-04T08:42:49.988Z,116.50
2023-02-04T08:45:18.041Z,119.72
2023-02-04T08:47:45.337Z,119.78
2023-02-04T08:50:13.097Z,124.70
2023-02-04T08:52:40.384Z,126.07
2023-02-04T08:55:08.630Z,120.03
2023-02-04T08:57:36.004Z,126.75
2023-02-04T09:00:04.287Z,118.45
2023-02-04T09:02:31.693Z,118.78
2023-02-04T09:04:59.110Z,122.15
2023-02-04T09:07:26.386Z,127.10
2023-02-04T09:09:53.720Z,124.70
2023-02-04T09:12:20.977Z,123.43
2023-02-04T09:14:48.407Z,119.38
2023-02-04T09:17:15.706Z,119.00
2023-02-04T09:19:43.055Z,119.32
2023-02-04T09:22:11.599Z,115.80
2023-02-04T09:24:39.186Z,118.10
2023-02-04T09:27:06.627Z,117.60
2023-02-04T09:29:34.023Z,119.82
2023-02-04T09:32:01.371Z,117.82
2023-02-04T09:34:28.784Z,122.70
2023-02-04T09:36:56.099Z,126.50
2023-02-04T09:39:23.547Z,126.35
2023-02-04T09:41:53.897Z,127.10
2023-02-04T09:44:24.734Z,125.15
2023-02-04T09:46:55.699Z,129.73
2023-02-04T09:49:23.836Z,128.95
2023-02-04T09:51:51.787Z,128.80
2023-02-04T09:54:22.750Z,132.05
2023-02-04T09:56:53.162Z,142.00
2023-02-04T09:59:27.423Z,145.60
2023-02-04T10:02:01.359Z,153.35
2023-02-04T10:04:29.182Z,151.00
2023-02-04T10:07:00.150Z,155.77
2023-02-04T10:09:27.657Z,162.10
2023-02-04T10:11:55.072Z,167.93
2023-02-04T10:14:23.806Z,159.88
2023-02-04T10:16:59.394Z,153.00
2023-02-04T10:19:29.358Z,160.45
2023-02-04T10:21:57.156Z,156.10
2023-02-04T10:24:30.633Z,157.02
2023-02-04T10:27:12.233Z,161.82
2023-02-04T10:29:42.244Z,158.18
2023-02-04T10:32:26.937Z,161.80
2023-02-04T10:34:59.380Z,163.55
2023-02-04T10:37:26.784Z,158.73
2023-02-04T10:39:54.201Z,170.82
2023-02-04T10:42:24.556Z,166.73
2023-02-04T10:44:52.802Z,159.68
2023-02-04T10:47:22.511Z,206.65
2023-02-04T10:49:56.108Z,165.82
2023-02-04T10:52:33.870Z,162.60
2023-02-04T10:55:03.907Z,167.73
2023-02-04T10:57:37.410Z,172.73
2023-02-04T11:00:14.560Z,163.15
2023-02-04T11:03:06.582Z,168.55
2023-02-04T11:05:36.532Z,170.98
2023-02-04T11:08:21.717Z,166.50
2023-02-04T11:10:56.890Z,166.50
2023-02-04T11:13:42.648Z,162.98
2023-02-04T11:16:19.080Z,161.95
2023-02-04T11:18:52.449Z,163.90
2023-02-04T11:21:34.792Z,164.23
2023-02-04T11:24:24.122Z,166.15
2023-02-04T11:26:54.118Z,163.88
2023-02-04T11:29:35.936Z,168.82
2023-02-04T11:32:29.618Z,432.70
2023-02-04T11:35:28.606Z,165.15
2023-02-04T11:37:56.939Z,163.50
2023-02-04T11:40:29.312Z,169.07
2023-02-04T11:43:12.756Z,339.80
2023-02-04T11:45:41.184Z,182.20
2023-02-04T11:48:21.453Z,162.30
2023-02-04T11:50:56.876Z,170.45
2023-02-04T11:53:28.615Z,160.18
2023-02-04T11:55:55.901Z,160.32
2023-02-04T11:58:26.057Z,161.93
2023-02-04T12:00:53.510Z,156.57
2023-02-04T12:03:26.730Z,157.80
2023-02-04T12:05:57.233Z,168.27
2023-02-04T12:08:24.716Z,162.27
2023-02-04T12:11:00.311Z,160.23
2023-02-04T12:13:30.383Z,165.10
2023-02-04T12:16:04.159Z,162.18
2023-02-04T12:18:33.900Z,161.07
2023-02-04T12:21:04.415Z,158.32
2023-02-04T12:23:31.824Z,153.05
2023-02-04T12:25:59.805Z,150.10
2023-02-04T12:28:30.790Z,151.05
2023-02-04T12:30:58.164Z,149.73
2023-02-04T12:33:26.024Z,151.35
2023-02-04T12:35:53.566Z,156.18
2023-02-04T12:38:21.907Z,159.85
2023-02-04T12:40:52.672Z,156.38
2023-02-04T12:43:20.000Z,152.25
2023-02-04T12:45:49.779Z,150.20
2023-02-04T12:48:17.433Z,163.55
2023-02-04T12:50:45.880Z,159.93
2023-02-04T12:53:13.182Z,153.45
2023-02-04T12:55:40.999Z,150.23
2023-02-04T12:58:08.428Z,153.23
2023-02-04T13:00:35.905Z,155.68
2023-02-04T13:03:03.568Z,155.52
2023-02-04T13:05:31.610Z,153.30
2023-02-04T13:08:02.403Z,149.90
2023-02-04T13:10:29.704Z,147.82
2023-02-04T13:12:57.108Z,154.02
2023-02-04T13:15:24.376Z,146.23
2023-02-04T13:17:51.769Z,143.20
2023-02-04T13:20:21.694Z,147.73
2023-02-04T13:22:49.015Z,143.93
2023-02-04T13:25:16.450Z,140.85
2023-02-04T13:27:43.824Z,139.45
2023-02-04T13:30:13.655Z,142.00
2023-02-04T13:32:41.921Z,135.52
2023-02-04T13:35:09.492Z,134.38
2023-02-04T13:37:38.207Z,134.20
2023-02-04T13:40:07.962Z,139.80
2023-02-04T13:42:35.713Z,133.68
2023-02-04T13:45:06.558Z,131.82
2023-02-04T13:47:33.953Z,133.13
2023-02-04T13:50:01.274Z,130.63
2023-02-04T13:52:28.645Z,129.40
2023-02-04T13:54:56.653Z,135.57
2023-02-04T13:57:26.296Z,135.10
2023-02-04T13:59:54.574Z,136.07
2023-02-04T14:02:23.979Z,134.32
2023-02-04T14:04:51.349Z,130.23
2023-02-04T14:07:18.930Z,144.88
2023-02-04T14:09:48.284Z,136.38
2023-02-04T14:12:15.777Z,135.20
2023-02-04T14:14:43.092Z,142.38
2023-02-04T14:17:10.384Z,129.80
2023-02-04T14:19:37.718Z,142.48
2023-02-04T14:22:05.109Z,137.77
2023-02-04T14:27:17.227Z,140.68
2023-02-04T14:29:44.557Z,147.45
2023-02-04T14:32:11.918Z,133.73
2023-02-04T14:34:39.178Z,127.78
2023-02-04T14:37:06.553Z,120.72
2023-02-04T14:39:33.861Z,113.15
2023-02-04T14:42:04.436Z,109.95
2023-02-04T14:44:35.351Z,128.82
2023-02-04T14:47:02.767Z,119.65
2023-02-04T14:49:30.385Z,129.38
2023-02-04T14:51:57.778Z,136.13
2023-02-04T14:54:25.101Z,133.30
2023-02-04T14:56:52.631Z,132.07
2023-02-04T14:59:19.971Z,132.73
2023-02-04T15:01:47.321Z,131.95
2023-02-04T15:04:14.685Z,137.50
2023-02-04T15:06:42.068Z,148.10
2023-02-04T15:09:09.571Z,140.93
2023-02-04T15:11:37.153Z,151.32
2023-02-04T15:14:04.959Z,147.05
2023-02-04T15:16:32.439Z,147.55
2023-02-04T15:19:05.664Z,160.40
2023-02-04T15:21:33.108Z,166.85
2023-02-04T15:24:00.572Z,171.68
2023-02-04T15:26:31.016Z,181.82
2023-02-04T15:28:58.479Z,182.05
2023-02-04T15:31:27.264Z,184.85
2023-02-04T15:33:54.676Z,188.00
2023-02-04T15:36:22.242Z,189.93
2023-02-04T15:38:49.620Z,192.13
2023-02-04T15:41:16.985Z,192.05
2023-02-04T15:43:44.553Z,194.68
2023-02-04T15:46:12.003Z,200.32
2023-02-04T15:48:39.392Z,197.45
2023-02-04T15:51:06.717Z,185.32
2023-02-04T15:53:35.105Z,192.07
2023-02-04T15:56:02.405Z,186.50
2023-02-04T15:58:29.709Z,186.93
2023-02-04T16:00:57.482Z,184.25
2023-02-04T16:03:24.928Z,178.40
2023-02-04T16:05:52.250Z,180.25
2023-02-04T16:08:19.561Z,179.32
2023-02-04T16:10:47.161Z,176.18
2023-02-04T16:13:14.659Z,174.07
2023-02-04T16:15:41.989Z,176.65
2023-02-04T16:18:09.344Z,175.63
2023-02-04T16:20:37.556Z,168.10
2023-02-04T16:23:07.165Z,169.57
2023-02-04T16:25:34.944Z,173.85
2023-02-04T16:28:03.818Z,157.65
2023-02-04T16:30:31.174Z,162.25
2023-02-04T16:32:58.572Z,163.45
2023-02-04T16:35:27.119Z,152.80
2023-02-04T16:37:54.453Z,160.38
2023-02-04T16:40:21.789Z,156.75
2023-02-04T16:42:49.221Z,159.05
2023-02-04T16:45:19.654Z,164.55
2023-02-04T16:47:47.032Z,160.77
2023-02-04T16:50:14.439Z,168.90
2023-02-04T16:52:41.856Z,164.95
2023-02-04T16:55:09.241Z,163.48
2023-02-04T16:57:36.652Z,156.77
2023-02-04T17:00:04.661Z,158.75
2023-02-04T17:02:37.082Z,160.00
2023-02-04T17:05:05.770Z,161.98
2023-02-04T17:07:33.401Z,157.25
2023-02-04T17:10:00.891Z,158.48
2023-02-04T17:12:28.345Z,146.02
2023-02-04T17:14:55.675Z,139.98
2023-02-04T17:17:23.045Z,141.70
2023-02-04T17:19:50.630Z,128.77
2023-02-04T17:22:18.063Z,123.40
2023-02-04T17:24:45.411Z,122.45
2023-02-04T17:27:13.027Z,125.63
2023-02-04T17:29:40.325Z,128.98
2023-02-04T17:32:08.678Z,114.10
2023-02-04T17:34:36.048Z,116.90
2023-02-04T17:37:03.394Z,116.13
2023-02-04T17:39:31.124Z,104.85
2023-02-04T17:41:58.792Z,97.63
2023-02-04T17:44:27.700Z,97.22
2023-02-04T17:46:55.234Z,95.38
2023-02-04T17:49:22.706Z,92.65
2023-02-04T17:51:50.925Z,82.57
2023-02-04T17:54:18.269Z,94.43
2023-02-04T17:56:45.541Z,84.28
2023-02-04T17:59:13.115Z,86.93
2023-02-04T18:01:41.570Z,82.90
2023-02-04T18:04:12.977Z,78.70
2023-02-04T18:06:40.424Z,86.13
2023-02-04T18:09:26.998Z,69.70
2023-02-04T18:11:54.309Z,68.05
2023-02-04T18:14:27.847Z,64.93
2023-02-04T18:16:58.482Z,65.88
2023-02-04T18:19:29.211Z,62.90
2023-02-04T18:21:58.608Z,62.47
2023-02-04T18:24:32.492Z,64.75
2023-02-04T18:27:02.192Z,63.15
2023-02-04T18:29:37.383Z,59.92
2023-02-04T18:32:20.434Z,75.38
2023-02-04T18:34:52.986Z,62.55
2023-02-04T18:37:42.563Z,58.85
2023-02-04T18:40:09.907Z,60.83
2023-02-04T18:42:39.607Z,59.75
2023-02-04T18:45:16.359Z,64.55
2023-02-04T18:47:44.021Z,61.22
2023-02-04T18:50:33.162Z,60.47
2023-02-04T18:53:19.491Z,61.33
2023-02-04T18:55:49.716Z,58.30
2023-02-04T18:58:17.223Z,61.95
2023-02-04T19:01:17.028Z,56.92
2023-02-04T19:04:03.384Z,52.80
2023-02-04T19:06:40.024Z,56.25
2023-02-04T19:09:10.212Z,51.15
2023-02-04T19:11:38.900Z,55.20
2023-02-04T19:14:13.199Z,51.15
2023-02-04T19:16:41.460Z,50.83
2023-02-04T19:19:35.732Z,47.47
2023-02-04T19:22:35.312Z,45.63
2023-02-04T19:25:22.542Z,44.35
2023-02-04T19:27:58.191Z,43.63
2023-02-04T19:30:28.322Z,44.40
2023-02-04T19:33:10.100Z,41.65
2023-02-04T19:35:43.239Z,41.35
2023-02-04T19:38:45.043Z,41.75
2023-02-04T19:41:28.235Z,45.60
2023-02-04T19:44:14.166Z,41.90
2023-02-04T19:46:42.436Z,44.33
2023-02-04T19:49:21.937Z,36.75
2023-02-04T19:51:53.794Z,37.58
2023-02-04T19:56:55.153Z,40.35
2023-02-04T19:59:33.492Z,44.25
2023-02-04T20:02:06.733Z,39.00
2023-02-04T20:04:42.546Z,42.03
2023-02-04T20:07:19.843Z,42.45
2023-02-04T20:09:47.624Z,42.47
2023-02-04T20:12:16.599Z,41.85
2023-02-04T20:14:56.007Z,47.42
2023-02-04T20:17:46.524Z,44.08
2023-02-04T20:20:26.356Z,40.35
2023-02-04T20:23:21.548Z,45.30
2023-02-04T20:25:50.437Z,43.97
2023-02-04T20:28:23.762Z,49.53
2023-02-04T20:30:52.152Z,45.78
2023-02-04T20:33:35.387Z,48.40
2023-02-04T20:36:41.088Z,46.03
2023-02-04T20:39:26.829Z,44.63
2023-02-04T20:41:54.631Z,45.35
2023-02-04T20:44:35.757Z,54.60
2023-02-04T20:47:24.856Z,47.47
2023-02-04T20:49:58.718Z,51.95
2023-02-04T20:52:41.223Z,48.72
2023-02-04T20:56:03.786Z,52.22
2023-02-04T21:01:03.740Z,40.30
2023-02-04T21:03:37.724Z,42.95
2023-02-04T21:06:21.237Z,42.90
2023-02-04T21:08:51.165Z,43.05
2023-02-04T21:11:19.030Z,43.83
2023-02-04T21:13:47.609Z,50.22
2023-02-04T21:16:15.895Z,48.00
2023-02-04T21:18:43.311Z,52.35
2023-02-04T21:21:10.689Z,54.05
2023-02-04T21:23:38.250Z,50.53
2023-02-04T21:26:06.394Z,45.50
2023-02-04T21:28:34.052Z,46.90
2023-02-04T21:31:01.758Z,49.83
2023-02-04T21:33:29.134Z,48.72
2023-02-04T21:35:56.451Z,42.65
2023-02-04T21:38:23.858Z,42.05
2023-02-04T21:40:51.354Z,43.78
2023-02-04T21:43:18.780Z,40.65
2023-02-04T21:45:46.110Z,46.38
2023-02-04T21:48:14.750Z,42.50
2023-02-04T21:50:42.203Z,43.60
2023-02-04T21:53:09.855Z,43.05
2023-02-04T21:55:37.980Z,39.20
2023-02-04T21:58:05.862Z,39.95
2023-02-04T22:00:33.802Z,35.20
2023-02-04T22:03:01.489Z,29.48
2023-02-04T22:05:32.425Z,27.00
2023-02-04T22:08:00.065Z,19.37
2023-02-04T22:10:27.391Z,20.50
2023-02-04T22:12:54.759Z,23.27
2023-02-04T22:15:22.637Z,26.85
2023-02-04T22:17:53.676Z,25.98
2023-02-04T22:20:23.731Z,24.40
2023-02-04T22:22:55.174Z,23.77
2023-02-04T22:25:22.714Z,23.00
2023-02-04T22:27:50.347Z,22.33
2023-02-04T22:30:18.228Z,22.65
2023-02-04T22:32:45.736Z,22.67
2023-02-04T22:35:14.166Z,19.45
2023-02-04T22:37:42.354Z,21.58
2023-02-04T22:40:13.157Z,19.60
2023-02-04T22:42:40.878Z,20.60
2023-02-04T22:45:11.644Z,17.63
2023-02-04T22:47:39.148Z,22.55
2023-02-04T22:50:06.858Z,16.92
2023-02-04T22:52:34.305Z,13.05
2023-02-04T22:55:01.675Z,18.35
2023-02-04T22:57:29.083Z,14.32
2023-02-04T22:59:56.375Z,20.00
2023-02-04T23:02:23.689Z,13.43
2023-02-04T23:04:51.252Z,16.33
2023-02-04T23:07:19.071Z,16.13
2023-02-04T23:09:47.671Z,18.60
2023-02-04T23:12:15.086Z,18.13
2023-02-04T23:14:44.916Z,20.35
2023-02-04T23:17:13.434Z,17.75
2023-02-04T23:19:40.979Z,20.17
2023-02-04T23:22:10.375Z,16.23
2023-02-04T23:24:38.712Z,18.30
2023-02-04T23:27:06.771Z,19.50
2023-02-04T23:29:35.364Z,16.25
2023-02-04T23:32:03.541Z,19.20
2023-02-04T23:34:31.273Z,26.70
2023-02-04T23:36:58.620Z,23.85
2023-02-04T23:39:26.173Z,27.92
2023-02-04T23:41:53.658Z,31.45
2023-02-04T23:44:21.129Z,24.90
2023-02-04T23:46:48.580Z,29.02
2023-02-04T23:49:16.017Z,26.92
2023-02-04T23:51:43.516Z,26.13
2023-02-04T23:54:10.930Z,26.05
2023-02-04T23:56:38.307Z,24.65
2023-02-04T23:59:06.006Z,26.60
